Time;durP1;ratioP1;P1;durP2;ratioP2;P2;SDS_P1;SDS_P2;PMS_P1;PMS_P2;Temp;Humidity;BMP_temperature;BMP_pressure;BME280_temperature;BME280_humidity;BME280_pressure;Samples;Min_cycle;Max_cycle;Signal;HPM_P1;HPM_P2
2022/09/13 00:00:53;;;;;;;0.20;0.20;;;18.30;99.90;;;;;;4875859;29;20397;-76
2022/09/13 00:03:23;;;;;;;0.20;0.20;;;18.30;99.90;;;;;;4860835;29;20053;-76
2022/09/13 00:05:48;;;;;;;0.20;0.20;;;18.30;99.90;;;;;;4869438;29;20059;-76
2022/09/13 00:08:15;;;;;;;0.20;0.20;;;18.30;99.90;;;;;;4857897;29;20067;-77
2022/09/13 00:10:42;;;;;;;0.20;0.20;;;18.30;99.90;;;;;;4858688;29;20048;-76
2022/09/13 00:13:09;;;;;;;0.10;0.10;;;18.20;99.90;;;;;;4858465;29;20390;-77
2022/09/13 00:15:36;;;;;;;0.20;0.20;;;18.20;99.90;;;;;;4858391;29;20454;-76
2022/09/13 00:18:02;;;;;;;0.20;0.20;;;18.30;99.90;;;;;;4861803;29;20052;-76
2022/09/13 00:20:28;;;;;;;0.10;0.10;;;18.20;99.90;;;;;;4875166;29;20397;-76
2022/09/13 00:22:53;;;;;;;0.20;0.20;;;18.20;99.90;;;;;;4874358;29;20132;-76
2022/09/13 00:25:19;;;;;;;0.10;0.10;;;18.10;99.90;;;;;;4860089;29;20128;-76
2022/09/13 00:27:45;;;;;;;0.20;0.20;;;18.10;99.90;;;;;;4856931;29;20068;-76
2022/09/13 00:30:12;;;;;;;0.20;0.20;;;18.10;99.90;;;;;;4857377;29;20052;-76
2022/09/13 00:32:38;;;;;;;0.20;0.20;;;18.10;99.90;;;;;;4873801;29;20053;-76
2022/09/13 00:35:04;;;;;;;0.20;0.20;;;18.10;99.90;;;;;;4872214;29;20041;-77
2022/09/13 00:37:33;;;;;;;0.20;0.20;;;18.00;99.90;;;;;;4858441;29;20049;-77
2022/09/13 00:40:00;;;;;;;0.20;0.20;;;18.00;99.90;;;;;;4874682;29;20541;-76
2022/09/13 00:42:28;;;;;;;0.20;0.20;;;18.10;99.90;;;;;;4873002;29;20696;-76
2022/09/13 00:45:15;;;;;;;0.10;0.10;;;18.00;99.90;;;;;;4873676;29;20093;-76
2022/09/13 00:48:02;;;;;;;0.10;0.10;;;18.00;99.90;;;;;;4873043;29;20466;-76
2022/09/13 00:50:37;;;;;;;0.20;0.20;;;18.00;99.90;;;;;;4865232;29;20090;-76
2022/09/13 00:53:10;;;;;;;0.15;0.15;;;18.00;99.90;;;;;;4875505;29;20056;-76
2022/09/13 00:56:01;;;;;;;0.20;0.20;;;18.00;99.90;;;;;;4873995;29;20080;-76
2022/09/13 00:58:40;;;;;;;;;;;17.90;99.90;;;;;;4872722;29;20049;-76
2022/09/13 01:01:09;;;;;;;0.10;0.10;;;17.90;99.90;;;;;;4873944;29;19928;-76
2022/09/13 01:03:35;;;;;;;0.20;0.20;;;18.10;99.90;;;;;;4871001;29;20120;-76
2022/09/13 01:06:07;;;;;;;0.20;0.20;;;17.90;99.90;;;;;;4849948;29;20442;-76
2022/09/13 01:08:35;;;;;;;0.20;0.20;;;17.80;99.90;;;;;;4873977;29;20068;-77
2022/09/13 01:11:05;;;;;;;0.17;0.17;;;17.70;99.90;;;;;;4857750;29;20468;-77
2022/09/13 01:13:32;;;;;;;0.10;0.10;;;17.70;99.90;;;;;;4861558;29;20397;-76
2022/09/13 01:15:59;;;;;;;0.20;0.20;;;17.70;99.90;;;;;;4876227;29;20037;-77
2022/09/13 01:18:25;;;;;;;0.30;0.30;;;17.60;99.90;;;;;;4876858;29;20139;-77
2022/09/13 01:21:14;;;;;;;0.10;0.10;;;17.60;99.90;;;;;;4859814;29;20501;-77
2022/09/13 01:23:42;;;;;;;0.10;0.10;;;17.70;99.90;;;;;;4875431;29;20080;-77
2022/09/13 01:26:14;;;;;;;0.20;0.20;;;17.60;99.90;;;;;;4859876;29;20564;-76
2022/09/13 01:29:03;;;;;;;0.20;0.20;;;17.60;99.90;;;;;;4869769;29;20055;-76
2022/09/13 01:31:36;;;;;;;0.20;0.20;;;17.70;99.90;;;;;;4858687;29;21561;-77
2022/09/13 01:34:13;;;;;;;0.20;0.20;;;17.70;99.90;;;;;;4860533;29;20049;-75
2022/09/13 01:36:54;;;;;;;0.10;0.10;;;17.70;99.90;;;;;;4854219;29;21503;-76
2022/09/13 01:39:45;;;;;;;0.20;0.20;;;17.70;99.90;;;;;;4878416;29;20092;-76
2022/09/13 01:42:47;;;;;;;0.20;0.20;;;17.70;99.90;;;;;;4866497;29;20133;-75
2022/09/13 01:45:47;;;;;;;0.20;0.20;;;17.70;99.90;;;;;;4869318;29;20167;-76
2022/09/13 01:49:01;;;;;;;0.10;0.10;;;17.70;99.90;;;;;;4860640;29;20049;-76
2022/09/13 01:51:41;;;;;;;0.10;0.10;;;17.70;99.90;;;;;;4804111;29;20050;-76
2022/09/13 01:54:26;;;;;;;0.10;0.10;;;17.70;99.90;;;;;;4870678;29;20089;-76
2022/09/13 01:57:14;;;;;;;0.20;0.20;;;17.70;99.90;;;;;;4858104;29;20462;-76
2022/09/13 01:59:58;;;;;;;0.20;0.20;;;17.70;99.90;;;;;;4857678;29;20124;-76
2022/09/13 02:02:35;;;;;;;0.20;0.20;;;17.70;99.90;;;;;;4874275;29;20055;-75
2022/09/13 02:05:17;;;;;;;0.20;0.20;;;17.70;99.90;;;;;;4860080;29;20146;-76
2022/09/13 02:07:52;;;;;;;0.20;0.20;;;17.70;99.90;;;;;;4877087;29;20045;-76
2022/09/13 02:10:33;;;;;;;0.20;0.20;;;17.80;99.90;;;;;;4873079;29;20060;-76
2022/09/13 02:12:59;;;;;;;0.20;0.20;;;17.70;99.90;;;;;;4859334;29;20491;-76
2022/09/13 02:15:32;;;;;;;0.20;0.20;;;17.80;99.90;;;;;;4858878;29;20072;-76
2022/09/13 02:18:09;;;;;;;0.20;0.20;;;17.90;99.90;;;;;;4876882;29;20556;-76
2022/09/13 02:20:39;;;;;;;0.20;0.20;;;17.80;99.90;;;;;;4859400;29;20104;-76
2022/09/13 02:23:13;;;;;;;0.10;0.10;;;17.90;99.90;;;;;;4857405;29;20077;-76
2022/09/13 02:25:40;;;;;;;0.10;0.10;;;17.90;99.90;;;;;;4859023;29;20055;-76
2022/09/13 02:28:11;;;;;;;0.10;0.10;;;17.90;99.90;;;;;;4873175;29;20465;-76
2022/09/13 02:30:43;;;;;;;0.20;0.20;;;17.90;99.90;;;;;;4849778;29;20132;-76
2022/09/13 02:33:15;;;;;;;0.13;0.13;;;18.00;99.90;;;;;;4857341;29;20498;-76
2022/09/13 02:35:51;;;;;;;0.20;0.20;;;17.90;99.90;;;;;;4850759;29;20132;-76
2022/09/13 02:38:25;;;;;;;0.10;0.10;;;18.00;99.90;;;;;;4861344;29;20055;-76
2022/09/13 02:41:06;;;;;;;0.20;0.20;;;18.00;99.90;;;;;;4859725;29;20774;-76
2022/09/13 02:43:41;;;;;;;0.10;0.10;;;18.00;99.90;;;;;;4859310;29;20044;-76
2022/09/13 02:46:07;;;;;;;0.10;0.10;;;18.00;99.90;;;;;;4873759;29;20578;-75
2022/09/13 02:48:57;;;;;;;0.15;0.15;;;18.00;99.90;;;;;;4855913;29;20045;-76
2022/09/13 02:51:33;;;;;;;0.20;0.20;;;18.00;99.90;;;;;;4872628;29;20045;-76
2022/09/13 02:54:30;;;;;;;0.13;0.13;;;18.10;99.90;;;;;;4877194;29;20053;-76
2022/09/13 02:57:19;;;;;;;0.20;0.20;;;18.10;99.90;;;;;;4871884;29;20071;-76
2022/09/13 02:59:47;;;;;;;0.10;0.10;;;18.10;99.90;;;;;;4862487;29;20116;-76
2022/09/13 03:02:15;;;;;;;0.20;0.20;;;18.10;99.90;;;;;;4873062;29;20049;-76
2022/09/13 03:04:41;;;;;;;0.20;0.20;;;18.20;99.90;;;;;;4877547;29;20048;-76
2022/09/13 03:07:11;;;;;;;0.20;0.20;;;18.20;99.90;;;;;;4876241;29;20104;-76
2022/09/13 03:09:48;;;;;;;0.20;0.20;;;18.20;99.90;;;;;;4859769;29;20099;-76
2022/09/13 03:12:30;;;;;;;0.20;0.20;;;18.20;99.90;;;;;;4860423;29;20052;-75
2022/09/13 03:15:11;;;;;;;0.10;0.10;;;18.20;99.90;;;;;;4859761;29;20048;-76
2022/09/13 03:18:14;;;;;;;0.20;0.20;;;18.10;99.90;;;;;;4852691;29;20057;-76
2022/09/13 03:20:53;;;;;;;0.15;0.15;;;18.10;99.90;;;;;;4842160;29;20113;-76
2022/09/13 03:23:30;;;;;;;0.10;0.10;;;18.10;99.90;;;;;;4861817;29;20075;-76
2022/09/13 03:26:09;;;;;;;0.20;0.20;;;18.10;99.90;;;;;;4877475;29;20429;-76
2022/09/13 03:28:53;;;;;;;0.10;0.10;;;18.10;99.90;;;;;;4874599;29;20592;-76
2022/09/13 03:31:50;;;;;;;0.17;0.17;;;18.10;99.90;;;;;;4857867;29;20482;-76
2022/09/13 03:34:37;;;;;;;0.10;0.10;;;18.10;99.90;;;;;;4859050;29;20091;-76
2022/09/13 03:37:16;;;;;;;0.20;0.20;;;18.10;99.90;;;;;;4854601;29;20053;-76
2022/09/13 03:39:47;;;;;;;0.20;0.20;;;18.10;99.90;;;;;;4855773;29;20064;-76
2022/09/13 03:42:21;;;;;;;;;;;18.00;99.90;;;;;;4875508;29;20072;-76
2022/09/13 03:44:51;;;;;;;0.13;0.13;;;18.10;99.90;;;;;;4876262;29;20423;-75
2022/09/13 03:47:18;;;;;;;0.20;0.20;;;18.10;99.90;;;;;;4884628;29;20061;-76
2022/09/13 03:49:44;;;;;;;0.10;0.10;;;18.10;99.90;;;;;;4894317;29;20064;-75
2022/09/13 03:52:11;;;;;;;0.20;0.20;;;18.10;99.90;;;;;;4882322;29;20044;-76
2022/09/13 03:54:37;;;;;;;0.20;0.20;;;18.10;99.90;;;;;;4857993;29;20033;-76
2022/09/13 03:57:19;;;;;;;0.10;0.10;;;18.10;99.90;;;;;;4876119;29;20116;-76
2022/09/13 03:59:51;;;;;;;0.10;0.10;;;18.20;99.90;;;;;;4875527;29;20378;-76
2022/09/13 04:02:18;;;;;;;0.10;0.10;;;18.10;99.90;;;;;;4856771;29;20572;-76
2022/09/13 04:04:44;;;;;;;0.10;0.10;;;18.10;99.90;;;;;;4865518;29;20128;-76
2022/09/13 04:07:15;;;;;;;0.20;0.20;;;18.10;99.90;;;;;;4856814;29;20108;-76
2022/09/13 04:09:41;;;;;;;0.20;0.20;;;18.10;99.90;;;;;;4857904;29;20045;-76
2022/09/13 04:12:08;;;;;;;0.10;0.10;;;18.10;99.90;;;;;;4858576;29;20116;-76
2022/09/13 04:14:34;;;;;;;0.10;0.10;;;18.10;99.90;;;;;;4874382;29;20045;-76
2022/09/13 04:17:00;;;;;;;0.20;0.20;;;18.10;99.90;;;;;;4871916;29;20489;-76
2022/09/13 04:19:26;;;;;;;0.20;0.20;;;18.10;99.90;;;;;;4875290;29;20041;-76
2022/09/13 04:21:53;;;;;;;0.20;0.20;;;18.10;99.90;;;;;;4874466;29;20041;-76
2022/09/13 04:24:19;;;;;;;0.20;0.20;;;18.10;99.90;;;;;;4858397;29;20077;-76
2022/09/13 04:26:50;;;;;;;0.20;0.20;;;18.00;99.90;;;;;;4874483;29;20049;-76
2022/09/13 04:29:17;;;;;;;0.20;0.20;;;18.00;99.90;;;;;;4876124;29;20052;-76
2022/09/13 04:31:45;;;;;;;0.13;0.13;;;18.00;99.90;;;;;;4857520;29;20498;-76
2022/09/13 04:34:12;;;;;;;0.20;0.20;;;18.00;99.90;;;;;;4873602;29;20036;-76
2022/09/13 04:36:38;;;;;;;0.15;0.15;;;18.00;99.90;;;;;;4875215;29;20391;-76
2022/09/13 04:39:06;;;;;;;0.20;0.20;;;17.80;99.90;;;;;;4856653;29;20053;-76
2022/09/13 04:41:33;;;;;;;0.20;0.20;;;17.90;99.90;;;;;;4873324;29;20056;-76
2022/09/13 04:44:01;;;;;;;0.10;0.10;;;17.70;99.90;;;;;;4875286;29;20120;-76
2022/09/13 04:46:28;;;;;;;0.20;0.20;;;17.80;99.90;;;;;;4876039;29;20040;-76
2022/09/13 04:48:57;;;;;;;0.10;0.10;;;17.80;99.90;;;;;;4855660;29;20049;-76
2022/09/13 04:51:23;;;;;;;0.20;0.20;;;17.80;99.90;;;;;;4861806;29;20496;-76
2022/09/13 04:53:54;;;;;;;0.20;0.20;;;17.80;99.90;;;;;;4861223;29;20384;-76
2022/09/13 04:56:21;;;;;;;0.20;0.20;;;17.80;99.90;;;;;;4859885;29;20179;-76
2022/09/13 04:58:51;;;;;;;0.15;0.15;;;17.80;99.90;;;;;;4861327;29;20510;-76
2022/09/13 05:01:17;;;;;;;0.17;0.17;;;17.80;99.90;;;;;;4858506;29;20144;-76
2022/09/13 05:03:43;;;;;;;0.10;0.10;;;17.70;99.90;;;;;;4876472;29;20450;-76
2022/09/13 05:06:11;;;;;;;0.10;0.10;;;17.80;99.90;;;;;;4877505;29;20065;-76
2022/09/13 05:08:37;;;;;;;0.10;0.10;;;17.80;99.90;;;;;;4852227;29;20457;-76
2022/09/13 05:11:07;;;;;;;0.10;0.10;;;17.90;99.90;;;;;;4860545;29;20119;-75
2022/09/13 05:13:33;;;;;;;0.20;0.20;;;17.80;99.90;;;;;;4860088;29;20080;-76
2022/09/13 05:16:05;;;;;;;0.10;0.10;;;17.90;99.90;;;;;;4858846;29;20081;-76
2022/09/13 05:18:33;;;;;;;0.15;0.15;;;17.80;99.90;;;;;;4870132;29;20046;-76
2022/09/13 05:21:00;;;;;;;0.10;0.10;;;17.80;99.90;;;;;;4875787;29;20049;-76
2022/09/13 05:23:27;;;;;;;0.13;0.13;;;17.80;99.90;;;;;;4877258;29;20482;-76
2022/09/13 05:26:01;;;;;;;0.20;0.20;;;17.90;99.90;;;;;;4878071;29;20044;-76
2022/09/13 05:28:28;;;;;;;0.10;0.10;;;17.90;99.90;;;;;;4877911;29;20045;-76
2022/09/13 05:30:57;;;;;;;0.20;0.20;;;17.80;99.90;;;;;;4876101;29;20136;-76
2022/09/13 05:33:24;;;;;;;0.20;0.20;;;17.80;99.90;;;;;;4862376;29;20087;-76
2022/09/13 05:35:50;;;;;;;0.20;0.20;;;17.80;99.90;;;;;;4859303;29;20110;-76
2022/09/13 05:38:17;;;;;;;0.15;0.15;;;17.80;99.90;;;;;;4873627;29;20386;-76
2022/09/13 05:40:42;;;;;;;0.10;0.10;;;17.80;99.90;;;;;;4860725;29;20097;-76
2022/09/13 05:43:08;;;;;;;0.10;0.10;;;17.80;99.90;;;;;;4871206;29;20046;-76
2022/09/13 05:45:33;;;;;;;0.20;0.20;;;17.80;99.90;;;;;;4871159;29;20048;-76
2022/09/13 05:47:59;;;;;;;0.10;0.10;;;17.80;99.90;;;;;;4858840;29;20052;-76
2022/09/13 05:50:25;;;;;;;0.10;0.10;;;17.80;99.90;;;;;;4876896;29;20156;-76
2022/09/13 05:52:54;;;;;;;0.20;0.20;;;17.80;99.90;;;;;;4877418;29;20494;-76
2022/09/13 05:55:20;;;;;;;0.20;0.20;;;17.80;99.90;;;;;;4860785;29;20049;-76
2022/09/13 05:57:47;;;;;;;0.20;0.20;;;17.80;99.90;;;;;;4879863;29;20048;-76
2022/09/13 06:00:14;;;;;;;0.10;0.10;;;17.80;99.90;;;;;;4877534;29;20393;-76
2022/09/13 06:02:42;;;;;;;0.20;0.20;;;17.80;99.90;;;;;;4859345;29;20052;-76
2022/09/13 06:05:11;;;;;;;0.20;0.20;;;17.80;99.90;;;;;;4858510;29;20049;-76
2022/09/13 06:07:41;;;;;;;0.17;0.17;;;17.80;99.90;;;;;;4859136;29;20104;-76
2022/09/13 06:10:08;;;;;;;0.20;0.20;;;17.90;99.90;;;;;;4873917;29;20061;-76
2022/09/13 06:12:34;;;;;;;0.20;0.20;;;17.90;99.90;;;;;;4876435;29;20044;-76
2022/09/13 06:14:59;;;;;;;0.20;0.20;;;17.90;99.90;;;;;;4875256;29;20068;-76
2022/09/13 06:17:25;;;;;;;0.20;0.20;;;17.90;99.90;;;;;;4875444;29;20148;-76
2022/09/13 06:19:51;;;;;;;0.20;0.20;;;18.00;99.90;;;;;;4876751;29;20053;-76
2022/09/13 06:22:16;;;;;;;0.10;0.10;;;18.00;99.90;;;;;;4858777;29;20044;-76
2022/09/13 06:24:42;;;;;;;0.10;0.10;;;18.00;99.90;;;;;;4858519;29;20132;-76
2022/09/13 06:27:09;;;;;;;0.20;0.20;;;18.00;99.90;;;;;;4859337;29;20087;-76
2022/09/13 06:29:35;;;;;;;0.20;0.20;;;18.00;99.90;;;;;;4854440;29;20127;-76
2022/09/13 06:32:02;;;;;;;0.10;0.10;;;18.00;99.90;;;;;;4850437;29;20101;-76
2022/09/13 06:34:28;;;;;;;0.10;0.10;;;18.00;99.90;;;;;;4873461;29;20482;-75
2022/09/13 06:36:53;;;;;;;0.20;0.20;;;18.10;99.90;;;;;;4876448;29;20105;-76
2022/09/13 06:39:19;;;;;;;0.15;0.15;;;18.10;99.90;;;;;;4871813;29;20041;-75
2022/09/13 06:41:45;;;;;;;0.10;0.10;;;18.00;99.90;;;;;;4858372;29;20096;-75
2022/09/13 06:44:11;;;;;;;0.10;0.10;;;18.10;99.90;;;;;;4875297;29;20132;-76
2022/09/13 06:46:37;;;;;;;0.20;0.20;;;18.10;99.90;;;;;;4857738;29;20056;-76
2022/09/13 06:49:05;;;;;;;0.10;0.10;;;18.20;99.90;;;;;;4876504;29;20563;-76
2022/09/13 06:51:32;;;;;;;0.17;0.17;;;18.20;99.90;;;;;;4871965;29;20573;-76
2022/09/13 06:53:58;;;;;;;0.20;0.20;;;18.20;99.90;;;;;;4877135;29;20064;-76
2022/09/13 06:56:31;;;;;;;0.20;0.20;;;18.20;99.90;;;;;;4874229;29;20077;-75
2022/09/13 06:59:02;;;;;;;0.20;0.20;;;18.20;99.90;;;;;;4858731;29;20058;-76
2022/09/13 07:01:33;;;;;;;0.20;0.20;;;18.20;99.90;;;;;;4855631;29;20056;-76
2022/09/13 07:04:05;;;;;;;0.10;0.10;;;18.20;99.90;;;;;;4861039;29;20068;-75
2022/09/13 07:06:36;;;;;;;0.10;0.10;;;18.20;99.90;;;;;;4864319;29;20040;-75
2022/09/13 07:09:03;;;;;;;;;;;18.20;99.90;;;;;;4857541;29;20071;-75
2022/09/13 07:11:34;;;;;;;0.10;0.10;;;18.20;99.90;;;;;;4874088;29;19927;-75
2022/09/13 07:14:00;;;;;;;0.10;0.10;;;18.20;99.90;;;;;;4859782;29;20057;-75
2022/09/13 07:16:30;;;;;;;0.10;0.10;;;18.20;99.90;;;;;;4855973;29;20055;-75
2022/09/13 07:19:05;;;;;;;0.17;0.17;;;18.30;99.90;;;;;;4861206;29;20059;-75
2022/09/13 07:21:32;;;;;;;0.10;0.10;;;18.30;99.90;;;;;;4859206;29;20079;-75
2022/09/13 07:23:58;;;;;;;0.10;0.10;;;18.30;99.90;;;;;;4876366;29;20501;-75
2022/09/13 07:26:28;;;;;;;0.20;0.20;;;18.30;99.90;;;;;;4874340;29;20070;-76
2022/09/13 07:28:57;;;;;;;0.10;0.10;;;18.30;99.90;;;;;;4858600;29;20057;-75
2022/09/13 07:31:57;;;;;;;0.10;0.10;;;18.30;99.90;;;;;;4858669;29;20524;-75
2022/09/13 07:34:24;;;;;;;0.20;0.20;;;18.30;99.90;;;;;;4857587;29;20057;-75
2022/09/13 07:36:51;;;;;;;0.20;0.20;;;18.10;99.90;;;;;;4890322;29;20074;-74
2022/09/13 07:39:17;;;;;;;0.20;0.20;;;18.20;99.90;;;;;;4895102;29;20073;-75
2022/09/13 07:41:43;;;;;;;0.20;0.20;;;18.30;99.90;;;;;;4876836;29;20053;-77
2022/09/13 07:44:10;;;;;;;0.10;0.10;;;18.20;99.90;;;;;;4875168;29;20802;-76
2022/09/13 07:46:40;;;;;;;0.13;0.13;;;18.20;99.90;;;;;;4857910;29;20056;-77
2022/09/13 07:49:06;;;;;;;0.10;0.10;;;18.20;99.90;;;;;;4868150;29;20061;-76
2022/09/13 07:51:34;;;;;;;0.20;0.20;;;18.20;99.90;;;;;;4849986;29;20550;-77
2022/09/13 07:54:03;;;;;;;0.15;0.15;;;18.20;99.90;;;;;;4855263;29;20068;-78
2022/09/13 07:56:31;;;;;;;0.20;0.20;;;18.30;99.90;;;;;;4873793;29;20044;-77
2022/09/13 07:58:59;;;;;;;0.20;0.20;;;18.30;99.90;;;;;;4856038;29;20049;-78
2022/09/13 08:01:32;;;;;;;0.20;0.20;;;18.40;99.90;;;;;;4864841;29;20052;-77
2022/09/13 08:04:04;;;;;;;0.10;0.10;;;18.40;99.90;;;;;;4878857;29;20747;-77
2022/09/13 08:06:31;;;;;;;0.10;0.10;;;18.40;99.90;;;;;;4866728;29;20916;-78
2022/09/13 08:08:57;;;;;;;0.10;0.10;;;18.40;99.90;;;;;;4871877;29;20044;-78
2022/09/13 08:11:32;;;;;;;0.10;0.10;;;18.40;99.90;;;;;;4858244;29;20104;-78
2022/09/13 08:13:58;;;;;;;0.20;0.20;;;18.40;99.90;;;;;;4872745;29;20069;-78
2022/09/13 08:16:26;;;;;;;0.20;0.20;;;18.40;99.90;;;;;;4854106;29;20128;-77
2022/09/13 08:18:54;;;;;;;0.10;0.10;;;18.50;99.90;;;;;;4879384;29;20418;-78
2022/09/13 08:21:21;;;;;;;0.10;0.10;;;18.50;99.90;;;;;;4874401;29;20044;-76
2022/09/13 08:23:47;;;;;;;0.10;0.10;;;18.50;99.90;;;;;;4858227;29;20080;-77
2022/09/13 08:26:13;;;;;;;0.10;0.10;;;18.40;99.90;;;;;;4857000;29;20057;-77
2022/09/13 08:28:39;;;;;;;0.20;0.20;;;18.50;99.90;;;;;;4874007;29;20049;-77
2022/09/13 08:31:08;;;;;;;0.10;0.10;;;18.40;99.90;;;;;;4856495;29;20052;-77
2022/09/13 08:33:34;;;;;;;0.10;0.10;;;18.50;99.90;;;;;;4871548;29;20077;-76
2022/09/13 08:36:01;;;;;;;0.10;0.10;;;18.50;99.90;;;;;;4854221;29;20053;-75
2022/09/13 08:38:27;;;;;;;0.10;0.10;;;18.50;99.90;;;;;;4854852;29;20057;-75
2022/09/13 08:40:58;;;;;;;0.20;0.20;;;18.50;99.90;;;;;;4872578;29;20060;-76
2022/09/13 08:43:39;;;;;;;0.10;0.10;;;18.50;99.90;;;;;;4875476;29;20054;-76
2022/09/13 08:46:21;;;;;;;0.20;0.20;;;;;;;;;;4852433;29;20064;-76
2022/09/13 08:48:50;;;;;;;0.20;0.20;;;18.60;99.90;;;;;;4857858;29;20052;-76
2022/09/13 08:51:36;;;;;;;0.10;0.10;;;18.60;99.90;;;;;;4858936;29;20128;-76
2022/09/13 08:54:02;;;;;;;0.13;0.13;;;18.60;99.90;;;;;;4873405;29;20110;-76
2022/09/13 08:56:43;;;;;;;0.10;0.10;;;18.70;99.90;;;;;;4855888;29;20053;-76
2022/09/13 08:59:27;;;;;;;0.17;0.17;;;18.70;99.90;;;;;;4857556;29;20113;-77
2022/09/13 09:02:00;;;;;;;0.15;0.15;;;18.60;99.90;;;;;;4869693;29;20053;-76
2022/09/13 09:04:26;;;;;;;0.25;0.25;;;18.70;99.90;;;;;;4856168;29;20097;-76
2022/09/13 09:07:07;;;;;;;0.20;0.20;;;18.70;99.90;;;;;;4858359;29;20044;-76
2022/09/13 09:09:54;;;;;;;0.20;0.20;;;18.80;99.90;;;;;;4872757;29;20049;-76
2022/09/13 09:12:43;;;;;;;0.13;0.13;;;18.80;99.90;;;;;;4869081;29;20402;-76
2022/09/13 09:15:25;;;;;;;0.20;0.20;;;18.80;99.90;;;;;;4851837;29;20045;-76
2022/09/13 09:17:57;;;;;;;0.20;0.20;;;18.80;99.90;;;;;;4853074;29;20105;-76
2022/09/13 09:20:25;;;;;;;0.20;0.20;;;18.80;99.90;;;;;;4857894;29;20393;-76
2022/09/13 09:22:53;;;;;;;0.20;0.20;;;18.90;99.90;;;;;;4858422;29;20453;-76
2022/09/13 09:25:21;;;;;;;0.10;0.10;;;18.90;99.90;;;;;;4871410;29;20045;-76
2022/09/13 09:27:47;;;;;;;0.20;0.20;;;18.80;99.90;;;;;;4867670;29;20045;-76
2022/09/13 09:30:14;;;;;;;0.10;0.10;;;19.00;99.90;;;;;;4853740;29;20049;-76
2022/09/13 09:33:04;;;;;;;0.10;0.10;;;19.00;99.90;;;;;;4861845;29;20097;-77
2022/09/13 09:35:45;;;;;;;0.20;0.20;;;19.10;99.90;;;;;;4876473;29;20059;-75
2022/09/13 09:38:36;;;;;;;0.10;0.10;;;19.10;99.90;;;;;;4879212;29;20059;-76
2022/09/13 09:41:34;;;;;;;0.13;0.13;;;19.20;99.90;;;;;;4872378;29;20065;-75
2022/09/13 09:44:21;;;;;;;0.15;0.15;;;19.30;99.90;;;;;;4859557;29;20139;-72
2022/09/13 09:46:53;;;;;;;0.20;0.20;;;19.30;99.90;;;;;;4859396;29;20053;-76
2022/09/13 09:52:52;;;;;;;0.10;0.10;;;19.50;99.90;;;;;;4870372;29;20061;-76
2022/09/13 09:55:21;;;;;;;0.20;0.20;;;19.60;99.90;;;;;;4854079;29;20105;-76
2022/09/13 09:57:58;;;;;;;0.20;0.20;;;19.70;99.90;;;;;;4860919;29;20053;-77
2022/09/13 10:00:34;;;;;;;0.10;0.10;;;19.70;99.90;;;;;;4856237;29;20053;-78
2022/09/13 10:03:06;;;;;;;0.10;0.10;;;19.80;99.90;;;;;;4853713;29;20401;-77
2022/09/13 10:05:34;;;;;;;0.10;0.10;;;19.80;99.90;;;;;;4871651;29;20071;-76
2022/09/13 10:08:05;;;;;;;0.10;0.10;;;19.80;99.90;;;;;;4878676;29;20491;-76
2022/09/13 10:10:50;;;;;;;0.13;0.13;;;19.70;99.90;;;;;;4875239;29;20053;-76
2022/09/13 10:13:19;;;;;;;0.20;0.20;;;19.70;99.90;;;;;;4875497;29;20689;-76
2022/09/13 10:15:59;;;;;;;0.20;0.20;;;19.70;99.90;;;;;;4876604;29;20041;-75
2022/09/13 10:18:27;;;;;;;0.20;0.20;;;19.70;99.90;;;;;;4868416;29;20132;-77
2022/09/13 10:21:17;;;;;;;0.20;0.20;;;19.80;99.90;;;;;;4875659;29;20307;-78
2022/09/13 10:23:44;;;;;;;0.20;0.20;;;19.80;99.90;;;;;;4858269;29;20499;-78
2022/09/13 10:26:14;;;;;;;0.20;0.20;;;20.00;99.90;;;;;;4855717;29;20152;-77
2022/09/13 10:29:07;;;;;;;0.20;0.20;;;20.00;99.90;;;;;;4854733;29;20052;-77
2022/09/13 10:31:36;;;;;;;0.10;0.10;;;19.90;99.90;;;;;;4860617;29;20057;-77
2022/09/13 10:34:21;;;;;;;0.20;0.20;;;19.90;99.90;;;;;;4870303;29;20056;-77
2022/09/13 10:37:01;;;;;;;0.20;0.20;;;19.90;99.90;;;;;;4852232;29;20056;-76
2022/09/13 10:39:29;;;;;;;0.17;0.17;;;19.80;99.90;;;;;;4871852;29;20053;-76
2022/09/13 10:42:04;;;;;;;0.10;0.10;;;19.90;99.90;;;;;;4870666;29;20056;-77
2022/09/13 10:44:38;;;;;;;0.20;0.20;;;19.90;99.90;;;;;;4870506;29;20088;-77
2022/09/13 10:47:06;;;;;;;0.20;0.20;;;20.00;99.90;;;;;;4851521;29;20060;-78
2022/09/13 10:49:44;;;;;;;0.20;0.20;;;20.00;99.90;;;;;;4858306;29;20080;-78
2022/09/13 10:52:23;;;;;;;0.20;0.20;;;20.10;99.90;;;;;;4871406;29;20390;-78
2022/09/13 10:54:49;;;;;;;0.10;0.10;;;20.20;99.90;;;;;;4856935;29;20041;-79
2022/09/13 10:57:36;;;;;;;0.20;0.20;;;20.10;99.90;;;;;;4870016;29;20101;-78
2022/09/13 11:00:07;;;;;;;0.20;0.20;;;20.10;99.90;;;;;;4862653;29;20673;-77
2022/09/13 11:02:55;;;;;;;0.20;0.20;;;20.10;99.90;;;;;;4851729;29;20093;-78
2022/09/13 11:05:43;;;;;;;0.20;0.20;;;20.20;99.90;;;;;;4855401;29;20559;-77
2022/09/13 11:08:35;;;;;;;0.20;0.20;;;20.30;99.90;;;;;;4872278;29;20457;-80
2022/09/13 11:11:26;;;;;;;0.10;0.10;;;20.40;99.90;;;;;;4876141;29;20045;-78
2022/09/13 11:14:16;;;;;;;0.13;0.13;;;20.40;99.90;;;;;;4857873;29;20049;-79
2022/09/13 11:16:45;;;;;;;0.20;0.20;;;20.40;99.90;;;;;;4853853;29;20080;-79
2022/09/13 11:19:13;;;;;;;0.20;0.20;;;20.40;99.90;;;;;;4873073;29;20597;-79
2022/09/13 11:21:39;;;;;;;0.10;0.10;;;20.50;99.90;;;;;;4851434;29;20060;-80
2022/09/13 11:24:13;;;;;;;0.20;0.20;;;20.60;99.90;;;;;;4855981;29;20065;-79
2022/09/13 11:26:56;;;;;;;0.20;0.20;;;20.60;99.90;;;;;;4858533;29;20084;-78
2022/09/13 11:29:42;;;;;;;0.20;0.20;;;20.70;99.90;;;;;;4859198;29;20049;-78
2022/09/13 11:32:29;;;;;;;0.20;0.20;;;20.90;99.90;;;;;;4866082;29;20454;-81
2022/09/13 11:35:15;;;;;;;0.20;0.20;;;21.00;99.90;;;;;;4875186;29;20390;-83
2022/09/13 11:37:54;;;;;;;0.20;0.20;;;21.10;99.90;;;;;;4858424;29;20081;-84
2022/09/13 11:40:36;;;;;;;0.20;0.20;;;21.20;99.90;;;;;;4875694;29;20068;-84
2022/09/13 11:43:29;;;;;;;0.10;0.10;;;21.10;99.90;;;;;;4857446;29;20584;-83
2022/09/13 11:46:06;;;;;;;0.20;0.20;;;21.10;99.90;;;;;;4874584;29;20104;-83
2022/09/13 11:48:50;;;;;;;0.20;0.20;;;21.00;99.90;;;;;;4875832;29;20048;-84
2022/09/13 11:51:39;;;;;;;0.10;0.10;;;20.90;99.90;;;;;;4860124;29;20057;-83
2022/09/13 11:54:24;;;;;;;0.10;0.10;;;21.00;99.90;;;;;;4866968;29;20053;-85
2022/09/13 11:56:54;;;;;;;0.15;0.15;;;21.10;99.90;;;;;;4872128;29;20096;-85
2022/09/13 12:00:00;;;;;;;0.20;0.20;;;21.40;99.90;;;;;;4860634;29;20081;-84
2022/09/13 12:02:42;;;;;;;0.17;0.17;;;21.50;99.90;;;;;;4797675;29;20043;-85
2022/09/13 12:05:20;;;;;;;0.20;0.20;;;21.40;99.90;;;;;;4866006;29;20053;-83
2022/09/13 12:08:06;;;;;;;0.10;0.10;;;21.30;99.90;;;;;;4875859;29;20057;-85
2022/09/13 12:10:42;;;;;;;0.13;0.13;;;21.30;99.90;;;;;;4857893;29;20398;-82
2022/09/13 12:13:15;;;;;;;0.20;0.20;;;21.40;99.90;;;;;;4870010;29;20120;-86
2022/09/13 12:15:43;;;;;;;0.20;0.20;;;21.60;99.90;;;;;;4856547;29;20037;-86
2022/09/13 12:18:24;;;;;;;0.20;0.20;;;21.80;99.90;;;;;;4859315;29;20045;-84
2022/09/13 12:20:57;;;;;;;0.20;0.20;;;22.10;99.90;;;;;;4856305;29;20052;-83
2022/09/13 12:23:26;;;;;;;0.20;0.20;;;22.20;99.90;;;;;;4857716;29;20610;-82
2022/09/13 12:26:14;;;;;;;0.20;0.20;;;22.20;99.90;;;;;;4857923;29;20078;-84
2022/09/13 12:29:05;;;;;;;0.20;0.20;;;22.10;99.90;;;;;;4843293;29;20378;-84
2022/09/13 12:31:31;;;;;;;0.20;0.20;;;22.00;99.90;;;;;;4851120;29;20068;-83
2022/09/13 12:33:58;;;;;;;0.20;0.20;;;21.90;99.90;;;;;;4857026;29;20083;-85
2022/09/13 12:36:50;;;;;;;0.10;0.10;;;21.90;99.90;;;;;;4854435;29;20501;-83
2022/09/13 12:39:52;;;;;;;0.20;0.20;;;21.90;99.90;;;;;;4875699;29;20553;-85
2022/09/13 12:42:37;;;;;;;0.20;0.20;;;21.80;99.90;;;;;;4866118;29;20094;-85
2022/09/13 12:45:30;;;;;;;0.20;0.20;;;21.70;99.90;;;;;;4858639;29;20053;-82
2022/09/13 12:48:05;;;;;;;0.15;0.15;;;21.80;99.90;;;;;;4872297;29;20109;-81
2022/09/13 12:50:54;;;;;;;0.20;0.20;;;21.90;99.90;;;;;;4859710;29;20051;-84
2022/09/13 12:53:45;;;;;;;0.20;0.20;;;21.80;99.90;;;;;;4857627;29;20053;-84
2022/09/13 12:56:16;;;;;;;0.20;0.20;;;21.60;99.90;;;;;;4876620;29;20059;-85
2022/09/13 12:59:02;;;;;;;;;;;21.50;99.90;;;;;;4874484;29;20079;-84
2022/09/13 13:01:30;;;;;;;0.10;0.10;;;21.50;99.90;;;;;;4893760;29;19924;-86
2022/09/13 13:04:12;;;;;;;0.10;0.10;;;21.50;99.90;;;;;;4881038;29;20053;-84
2022/09/13 13:06:48;;;;;;;0.10;0.10;;;21.50;99.90;;;;;;4859492;29;20041;-78
2022/09/13 13:09:44;;;;;;;0.20;0.20;;;21.60;99.90;;;;;;4879188;29;20404;-78
2022/09/13 13:12:28;;;;;;;0.20;0.20;;;21.50;99.90;;;;;;4863025;29;20057;-78
2022/09/13 13:14:55;;;;;;;0.10;0.10;;;21.50;99.90;;;;;;4877914;29;20132;-78
2022/09/13 13:17:37;;;;;;;0.20;0.20;;;21.50;99.90;;;;;;4857373;29;20571;-79
2022/09/13 13:20:43;;;;;;;0.20;0.20;;;21.60;99.90;;;;;;4860783;29;20049;-78
2022/09/13 13:23:46;;;;;;;0.13;0.13;;;21.70;99.90;;;;;;4861275;29;20407;-78
2022/09/13 13:26:48;;;;;;;0.13;0.13;;;21.70;99.90;;;;;;4864588;29;20143;-78